Time;durP1;ratioP1;P1;durP2;ratioP2;P2;SDS_P1;SDS_P2;PMS_P1;PMS_P2;Temp;Humidity;BMP_temperature;BMP_pressure;BME280_temperature;BME280_humidity;BME280_pressure;Samples;Min_cycle;Max_cycle;Signal;HPM_P1;HPM_P2
2022/01/28 00:00:33;;;;;;;2.67;1.00;;;;;;;2.13;91.76;99120.38;4168170;28;20041;-71
2022/01/28 00:04:53;;;;;;;8.55;1.35;;;;;;;2.09;91.04;99124.06;4169345;28;20095;-71
2022/01/28 00:06:53;;;;;;;5.35;2.15;;;;;;;2.06;90.33;99135.56;4168184;28;20051;-71
2022/01/28 00:08:54;;;;;;;3.40;1.05;;;;;;;2.08;89.40;99147.00;4168036;28;20056;-71
2022/01/28 00:10:54;;;;;;;2.05;1.20;;;;;;;2.03;89.95;99137.00;4168741;28;20487;-71
2022/01/28 00:13:20;;;;;;;6.85;1.58;;;;;;;1.97;90.51;99140.94;4169547;28;20049;-71
2022/01/28 00:15:31;;;;;;;2.88;1.10;;;;;;;1.91;90.16;99126.63;4169179;28;20413;-71
2022/01/28 00:18:18;;;;;;;2.83;1.35;;;;;;;1.94;89.96;99131.44;4168524;28;20048;-71
2022/01/28 00:38:44;;;;;;;1.52;1.10;;;;;;;1.66;96.87;99138.06;4168960;28;20454;-71
2022/01/28 00:40:44;;;;;;;2.00;1.27;;;;;;;1.59;97.77;99143.09;4168654;28;20548;-71
2022/01/28 00:42:44;;;;;;;2.55;1.10;;;;;;;1.52;99.06;99148.13;4166809;28;20064;-71
2022/01/28 00:44:45;;;;;;;4.10;1.88;;;;;;;1.36;100.00;99150.34;4169250;28;20048;-71
2022/01/28 00:46:45;;;;;;;4.68;1.30;;;;;;;1.33;100.00;99151.75;4167663;28;20084;-71
2022/01/28 00:48:45;;;;;;;3.40;1.00;;;;;;;1.30;100.00;99168.69;4167637;28;20110;-71
2022/01/28 00:50:46;;;;;;;4.03;1.17;;;;;;;1.33;100.00;99173.56;4169403;28;20476;-71
2022/01/28 00:52:46;;;;;;;6.32;1.30;;;;;;;1.28;100.00;99164.66;4168997;28;20188;-71
2022/01/28 00:54:46;;;;;;;1.40;1.05;;;;;;;1.34;100.00;99180.63;4168759;28;20049;-71
2022/01/28 00:56:47;;;;;;;2.25;1.23;;;;;;;1.19;100.00;99172.72;4168281;28;20055;-71
2022/01/28 00:58:48;;;;;;;4.47;1.33;;;;;;;1.20;100.00;99171.63;4168931;28;20041;-71
2022/01/28 01:00:48;;;;;;;2.15;0.90;;;;;;;1.11;100.00;99182.41;4169167;28;20388;-71
2022/01/28 01:02:49;;;;;;;1.15;0.90;;;;;;;1.09;100.00;99179.16;4168751;28;20076;-71
2022/01/28 01:04:49;;;;;;;2.75;1.38;;;;;;;0.99;100.00;99184.75;4169149;28;20555;-71
2022/01/28 01:06:50;;;;;;;5.57;1.20;;;;;;;1.01;100.00;99193.47;4168115;28;20136;-71
2022/01/28 01:08:50;;;;;;;1.48;1.10;;;;;;;0.98;100.00;99202.22;4169054;28;20083;-71
2022/01/28 01:10:53;;;;;;;3.45;1.13;;;;;;;0.99;100.00;99203.84;4168905;28;20536;-71
2022/01/28 01:12:54;;;;;;;1.30;0.90;;;;;;;1.08;100.00;99207.53;4169048;28;20532;-71
2022/01/28 01:14:54;;;;;;;2.00;1.38;;;;;;;1.00;100.00;99205.50;4168629;28;20085;-71
2022/01/28 01:17:46;;;;;;;1.88;1.20;;;;;;;0.98;100.00;99202.22;4167982;28;20449;-71
2022/01/28 01:19:21;;;;;;;2.35;0.98;;;;;;;0.95;100.00;99202.03;4157724;28;20056;-71
2022/01/28 01:21:25;;;;;;;5.13;1.42;;;;;;;0.95;100.00;99193.84;4169325;28;20033;-71
2022/01/28 01:23:29;;;;;;;3.42;1.38;;;;;;;0.93;100.00;99199.59;4168030;28;20051;-71
2022/01/28 01:25:30;;;;;;;3.00;1.60;;;;;;;1.07;100.00;99200.44;4168543;28;20049;-71
2022/01/28 01:27:31;;;;;;;2.35;1.33;;;;;;;1.15;100.00;99209.03;4166743;28;20045;-72
2022/01/28 01:29:31;;;;;;;2.47;1.15;;;;;;;1.28;100.00;99221.91;4168962;28;20073;-71
2022/01/28 01:31:31;;;;;;;3.88;1.40;;;;;;;1.29;100.00;99215.34;4169009;28;20053;-71
2022/01/28 01:33:39;;;;;;;6.68;1.48;;;;;;;1.43;100.00;99227.13;4171759;28;20045;-71
2022/01/28 01:35:40;;;;;;;1.98;1.33;;;;;;;1.57;98.76;99235.31;4170318;28;20040;-71
2022/01/28 01:37:40;;;;;;;3.13;1.90;;;;;;;1.63;97.48;99237.66;4170569;28;20060;-71
2022/01/28 01:39:42;;;;;;;5.18;1.40;;;;;;;1.69;95.72;99244.63;4171617;28;20045;-71
2022/01/28 01:41:48;;;;;;;5.40;1.30;;;;;;;1.77;94.33;99239.59;4171644;28;20745;-71
2022/01/28 01:44:07;;;;;;;2.45;1.58;;;;;;;1.80;92.92;99230.78;4171619;28;20374;-71
2022/01/28 01:52:49;;;;;;;2.47;1.45;;;;;;;1.82;91.83;99234.03;4171416;28;20051;-71
2022/01/28 01:54:50;;;;;;;8.20;1.30;;;;;;;1.85;91.69;99247.88;4171761;28;20049;-71
2022/01/28 01:56:53;;;;;;;7.57;2.42;;;;;;;1.81;91.36;99246.84;4170578;28;21000;-71
2022/01/28 01:58:56;;;;;;;6.93;1.52;;;;;;;1.84;91.45;99237.28;4171522;28;20049;-71
2022/01/28 02:01:00;;;;;;;7.07;2.03;;;;;;;1.83;91.45;99238.41;4171278;28;20049;-71
2022/01/28 02:03:00;;;;;;;10.32;1.92;;;;;;;1.91;91.34;99243.16;4171710;28;20049;-71
2022/01/28 02:05:01;;;;;;;5.00;1.58;;;;;;;1.92;90.71;99253.75;4171652;28;20048;-71
2022/01/28 02:07:01;;;;;;;6.53;1.30;;;;;;;1.91;90.38;99226.78;4170610;28;20546;-71
2022/01/28 02:09:01;;;;;;;3.58;1.40;;;;;;;1.88;90.57;99244.53;4170818;28;20206;-71
2022/01/28 02:11:03;;;;;;;7.10;1.58;;;;;;;1.91;89.62;99243.97;4171659;28;20071;-71
2022/01/28 02:13:03;;;;;;;6.30;1.95;;;;;;;1.87;89.92;99248.38;4171176;28;20053;-71
2022/01/28 02:15:04;;;;;;;9.35;2.10;;;;;;;1.89;89.92;99254.34;4171237;28;20336;-71
2022/01/28 02:17:05;;;;;;;7.90;1.85;;;;;;;1.92;90.18;99255.69;4170787;28;20049;-71
2022/01/28 02:19:05;;;;;;;6.38;1.63;;;;;;;1.91;90.68;99259.53;4171381;28;20478;-71
2022/01/28 02:21:09;;;;;;;3.63;1.10;;;;;;;1.92;91.49;99272.88;4171077;28;20091;-71
2022/01/28 02:23:09;;;;;;;4.75;2.08;;;;;;;1.88;90.50;99274.56;4171171;28;20041;-71
2022/01/28 02:25:21;;;;;;;6.80;1.88;;;;;;;1.98;89.52;99268.09;4171092;28;20186;-71
2022/01/28 02:27:22;;;;;;;7.20;1.33;;;;;;;1.96;87.28;99279.31;4170177;28;20049;-71
2022/01/28 02:29:30;;;;;;;7.85;1.55;;;;;;;1.91;87.65;99276.72;4171169;28;20048;-71
2022/01/28 02:31:31;;;;;;;5.57;1.35;;;;;;;1.88;86.36;99281.94;4171333;28;20057;-71
2022/01/28 02:33:31;;;;;;;4.68;1.23;;;;;;;1.92;85.50;99280.25;4171064;28;20448;-71
2022/01/28 02:35:31;;;;;;;3.03;1.33;;;;;;;1.95;84.69;99290.56;4170954;28;20095;-71
2022/01/28 02:37:32;;;;;;;6.47;2.00;;;;;;;2.01;84.31;99278.44;4169997;28;20448;-71
2022/01/28 02:39:32;;;;;;;4.53;1.63;;;;;;;1.95;84.43;99293.28;4170828;28;20168;-71
2022/01/28 02:41:37;;;;;;;9.02;1.98;;;;;;;1.86;85.59;99306.81;4170777;28;20480;-71
2022/01/28 02:45:40;;;;;;;3.90;1.98;;;;;;;1.79;85.90;99316.50;4170957;28;20474;-71
2022/01/28 02:47:42;;;;;;;;;;;;;;;1.84;85.75;99324.59;4171005;28;20431;-71
2022/01/28 02:49:44;;;;;;;6.28;1.42;;;;;;;1.80;85.70;99316.19;4170626;28;19920;-71
2022/01/28 02:51:44;;;;;;;4.15;1.23;;;;;;;1.79;86.74;99324.69;4170160;28;20048;-71
2022/01/28 02:53:57;;;;;;;7.82;1.25;;;;;;;1.71;86.83;99301.63;4170711;28;20040;-71
2022/01/28 02:56:01;;;;;;;10.73;1.83;;;;;;;1.72;86.33;99299.69;4170649;28;20052;-71
2022/01/28 02:58:15;;;;;;;1.60;1.27;;;;;;;1.68;86.19;99299.50;4168403;28;20071;-72
2022/01/28 03:00:16;;;;;;;2.15;1.25;;;;;;;1.50;88.76;99289.47;4170060;28;20420;-71
2022/01/28 03:02:16;;;;;;;1.10;0.90;;;;;;;1.43;88.72;99297.22;4170484;28;20039;-71
2022/01/28 03:06:40;;;;;;;4.32;1.50;;;;;;;1.31;88.89;99295.72;4131156;28;20062;-71
2022/01/28 03:08:45;;;;;;;5.60;2.55;;;;;;;1.34;88.76;99299.81;4170321;28;20132;-71
2022/01/28 03:13:15;;;;;;;3.95;1.30;;;;;;;1.12;89.73;99303.94;4170362;28;20464;-71
2022/01/28 03:15:20;;;;;;;5.95;1.20;;;;;;;1.04;90.02;99309.25;4170458;28;20489;-71
2022/01/28 03:19:46;;;;;;;5.22;1.13;;;;;;;0.99;90.80;99312.84;4170355;28;20078;-71
2022/01/28 03:22:05;;;;;;;6.15;1.55;;;;;;;0.99;90.53;99321.00;4170164;28;20040;-71
2022/01/28 03:24:07;;;;;;;3.85;1.67;;;;;;;0.97;90.53;99345.03;4169241;28;20053;-71
2022/01/28 03:26:07;;;;;;;4.45;1.20;;;;;;;0.94;91.09;99342.09;4170564;28;20224;-71
2022/01/28 03:28:08;;;;;;;8.57;1.70;;;;;;;1.00;90.00;99338.22;4169266;28;20036;-72
2022/01/28 03:30:08;;;;;;;3.78;1.40;;;;;;;1.02;90.05;99341.44;4170269;28;20036;-71
2022/01/28 03:32:09;;;;;;;8.15;2.08;;;;;;;1.00;89.61;99349.09;4169975;28;20033;-71
2022/01/28 03:34:09;;;;;;;9.30;2.47;;;;;;;0.97;90.10;99352.41;4170194;28;20036;-71
2022/01/28 03:36:11;;;;;;;10.55;3.20;;;;;;;0.96;90.16;99359.75;4169637;28;20029;-71
2022/01/28 03:38:13;;;;;;;4.38;1.58;;;;;;;0.97;90.11;99366.03;4169455;28;20075;-71
2022/01/28 03:40:18;;;;;;;9.32;2.10;;;;;;;1.01;90.47;99358.91;4170003;28;20200;-71
2022/01/28 03:42:18;;;;;;;6.78;1.63;;;;;;;1.04;91.91;99366.47;4170122;28;20036;-71
2022/01/28 03:44:18;;;;;;;6.75;1.60;;;;;;;1.01;92.89;99372.53;4169720;28;20052;-71
2022/01/28 03:46:18;;;;;;;7.13;1.45;;;;;;;0.98;94.42;99381.25;4169509;28;20473;-71
2022/01/28 03:48:19;;;;;;;6.07;1.55;;;;;;;1.05;95.44;99390.72;4169327;28;20032;-71
2022/01/28 03:50:20;;;;;;;6.07;1.35;;;;;;;0.98;97.88;99384.81;4169567;28;20032;-71
2022/01/28 03:52:20;;;;;;;6.40;1.45;;;;;;;0.93;99.34;99375.91;4169709;28;20036;-71
2022/01/28 03:54:20;;;;;;;2.45;1.42;;;;;;;0.82;100.00;99389.63;4169092;28;20489;-71
2022/01/28 03:56:20;;;;;;;5.32;1.42;;;;;;;0.76;100.00;99381.84;4168052;28;20076;-71
2022/01/28 03:58:21;;;;;;;7.53;1.85;;;;;;;0.69;100.00;99392.28;4168781;28;20078;-72
2022/01/28 04:00:26;;;;;;;3.47;1.30;;;;;;;0.66;100.00;99381.94;4169770;28;20048;-71
2022/01/28 04:02:31;;;;;;;6.85;1.60;;;;;;;0.63;100.00;99390.69;4169513;28;20053;-71
2022/01/28 04:13:28;;;;;;;3.78;1.40;;;;;;;0.53;100.00;99395.16;4168720;28;20412;-71
2022/01/28 04:15:51;;;;;;;1.83;1.30;;;;;;;0.45;100.00;99401.25;4169538;28;20044;-71
2022/01/28 04:17:51;;;;;;;;;;;;;;;0.43;100.00;99395.28;4169881;28;20057;-71
2022/01/28 04:19:52;;;;;;;2.17;1.30;;;;;;;0.40;100.00;99395.84;4168880;28;20277;-71
2022/01/28 04:21:53;;;;;;;9.40;1.95;;;;;;;0.48;100.00;99403.38;4169563;28;20052;-71
2022/01/28 04:23:53;;;;;;;6.00;1.83;;;;;;;0.44;100.00;99417.88;4169404;28;20053;-71
2022/01/28 04:25:53;;;;;;;12.82;2.13;;;;;;;0.40;100.00;99414.91;4169263;28;20483;-71
2022/01/28 04:27:54;;;;;;;5.13;1.88;;;;;;;0.34;100.00;99418.81;4168490;28;20107;-71
2022/01/28 04:29:54;;;;;;;4.07;1.58;;;;;;;0.44;100.00;99418.69;4169623;28;20299;-71
2022/01/28 04:31:55;;;;;;;5.57;1.60;;;;;;;0.44;100.00;99426.03;4167199;28;20045;-71
2022/01/28 04:33:56;;;;;;;13.73;2.40;;;;;;;0.52;100.00;99433.59;4167680;28;20086;-71
2022/01/28 04:35:57;;;;;;;7.82;1.60;;;;;;;0.62;100.00;99427.22;4169125;28;20049;-71
2022/01/28 04:38:23;;;;;;;6.20;1.67;;;;;;;0.64;100.00;99425.00;4168574;28;20649;-71
2022/01/28 04:40:28;;;;;;;4.07;1.75;;;;;;;0.82;100.00;99435.94;4168682;28;20075;-71
2022/01/28 04:44:33;;;;;;;4.20;1.80;;;;;;;0.82;100.00;99421.50;4167316;28;20041;-71
2022/01/28 04:46:43;;;;;;;9.70;1.73;;;;;;;0.87;99.29;99426.09;4167491;28;20397;-71
2022/01/28 04:50:55;;;;;;;10.95;1.60;;;;;;;0.79;99.28;99443.91;4168018;28;20049;-71
2022/01/28 04:55:33;;;;;;;7.93;1.92;;;;;;;0.92;96.74;99447.84;4167839;28;20098;-71
2022/01/28 05:00:03;;;;;;;4.10;1.63;;;;;;;1.02;94.28;99451.25;4168402;28;20049;-71
2022/01/28 05:04:43;;;;;;;5.28;1.55;;;;;;;1.05;94.42;99461.56;4167865;28;20200;-71
2022/01/28 05:27:07;;;;;;;6.45;1.80;;;;;;;1.18;87.28;99461.97;4170639;28;20128;-71
2022/01/28 05:29:07;;;;;;;8.75;2.65;;;;;;;1.18;86.51;99464.69;4171376;28;20128;-71
2022/01/28 05:31:08;;;;;;;11.93;2.80;;;;;;;1.21;85.65;99477.72;4171610;28;20072;-71
2022/01/28 05:33:08;;;;;;;7.82;1.73;;;;;;;1.24;84.57;99482.59;4171587;28;20098;-71
2022/01/28 05:35:09;;;;;;;7.03;2.05;;;;;;;1.28;84.35;99483.66;4171398;28;20087;-71
2022/01/28 05:37:09;;;;;;;7.65;1.60;;;;;;;1.36;83.22;99496.63;4170992;28;20099;-71
2022/01/28 05:39:09;;;;;;;11.63;1.77;;;;;;;1.41;83.61;99474.75;4171344;28;20247;-71
2022/01/28 05:41:10;;;;;;;12.50;1.83;;;;;;;1.37;83.26;99469.06;4172128;28;20253;-71
2022/01/28 05:43:10;;;;;;;2.97;1.35;;;;;;;1.38;83.23;99473.41;4171910;28;20049;-71
2022/01/28 05:45:11;;;;;;;6.10;1.77;;;;;;;1.40;83.29;99482.09;4170801;28;20465;-71
2022/01/28 05:47:15;;;;;;;5.38;2.03;;;;;;;1.45;83.23;99483.97;4169771;28;20500;-71
2022/01/28 05:49:16;;;;;;;13.00;2.65;;;;;;;1.45;83.14;99481.22;4170106;28;20049;-71
2022/01/28 05:51:18;;;;;;;8.32;1.75;;;;;;;1.45;82.94;99478.50;4171369;28;20400;-70
2022/01/28 05:53:18;;;;;;;3.30;1.40;;;;;;;1.44;83.61;99489.72;4171749;28;20582;-71
2022/01/28 05:55:18;;;;;;;8.20;1.40;;;;;;;1.53;82.97;99485.22;4171487;28;20052;-71
2022/01/28 05:57:19;;;;;;;8.35;1.88;;;;;;;1.53;83.54;99488.75;4168981;28;20053;-71
2022/01/28 05:59:19;;;;;;;9.95;1.85;;;;;;;1.38;85.00;99491.69;4171811;28;20083;-71
2022/01/28 06:01:20;;;;;;;4.88;1.77;;;;;;;1.44;85.29;99495.16;4173790;28;20497;-71
2022/01/28 06:03:20;;;;;;;10.20;2.42;;;;;;;1.39;85.44;99487.84;4173946;28;20106;-71
2022/01/28 06:05:21;;;;;;;8.02;2.20;;;;;;;1.33;86.10;99495.31;4174669;28;20041;-71
2022/01/28 06:07:21;;;;;;;5.20;1.70;;;;;;;1.36;85.93;99494.72;4174208;28;20465;-71
2022/01/28 06:09:21;;;;;;;5.57;1.60;;;;;;;1.43;86.37;99513.44;4174719;28;20467;-71
2022/01/28 06:11:23;;;;;;;4.82;1.73;;;;;;;1.44;86.28;99514.25;4174669;28;20444;-71
2022/01/28 06:13:24;;;;;;;6.03;1.92;;;;;;;1.39;86.78;99512.41;4174701;28;20049;-71
2022/01/28 06:15:24;;;;;;;5.97;1.40;;;;;;;1.42;86.74;99513.75;4174518;28;20296;-71
2022/01/28 06:17:24;;;;;;;6.35;1.70;;;;;;;1.43;87.41;99512.63;4172328;28;20041;-71
2022/01/28 06:19:25;;;;;;;7.35;1.63;;;;;;;1.42;88.12;99513.75;4175232;28;20847;-71
2022/01/28 06:21:25;;;;;;;7.00;1.60;;;;;;;1.30;89.32;99516.88;4175827;28;20063;-71
2022/01/28 06:23:25;;;;;;;9.00;2.33;;;;;;;1.30;89.94;99534.03;4175673;28;20102;-71
2022/01/28 06:25:26;;;;;;;7.53;1.65;;;;;;;1.34;90.53;99526.09;4175521;28;20118;-71
2022/01/28 06:27:27;;;;;;;6.07;1.73;;;;;;;1.30;90.81;99544.13;4175169;28;20148;-71
2022/01/28 06:29:27;;;;;;;9.18;1.48;;;;;;;1.29;91.19;99543.31;4175037;28;20045;-71
2022/01/28 06:31:27;;;;;;;9.82;1.70;;;;;;;1.29;91.12;99559.69;4174600;28;20110;-71
2022/01/28 06:33:28;;;;;;;9.27;2.35;;;;;;;1.33;91.21;99552.56;4175628;28;20049;-71
2022/01/28 06:35:28;;;;;;;6.03;1.58;;;;;;;1.29;90.94;99556.97;4175712;28;20053;-71
2022/01/28 06:37:29;;;;;;;7.90;1.45;;;;;;;1.25;91.40;99564.13;4174998;28;20049;-71
2022/01/28 06:39:32;;;;;;;5.05;1.67;;;;;;;1.26;91.81;99565.72;4175871;28;20444;-71
2022/01/28 06:41:32;;;;;;;4.15;1.70;;;;;;;1.31;91.26;99559.41;4175858;28;20037;-71
2022/01/28 06:43:33;;;;;;;7.32;1.60;;;;;;;1.29;91.14;99569.78;4175051;28;20111;-71
2022/01/28 06:45:33;;;;;;;7.03;1.90;;;;;;;1.25;90.82;99572.28;4175579;28;20482;-71
2022/01/28 06:47:35;;;;;;;8.70;1.67;;;;;;;1.30;89.86;99566.75;4174840;28;20153;-71
2022/01/28 06:49:35;;;;;;;7.03;1.80;;;;;;;1.28;89.83;99579.06;4175523;28;20432;-71
2022/01/28 06:51:37;;;;;;;8.43;1.90;;;;;;;1.29;88.85;99567.06;4175616;28;20369;-71
2022/01/28 06:53:38;;;;;;;11.02;1.63;;;;;;;1.27;89.06;99578.25;4175219;28;20053;-71
2022/01/28 06:55:39;;;;;;;7.93;2.05;;;;;;;1.28;89.43;99587.25;4175024;28;20049;-71
2022/01/28 06:57:40;;;;;;;5.45;1.30;;;;;;;1.28;88.63;99585.34;4174231;28;20136;-71
2022/01/28 06:59:40;;;;;;;10.07;2.10;;;;;;;1.32;88.28;99591.81;4174753;28;20481;-71
2022/01/28 07:01:40;;;;;;;7.53;3.35;;;;;;;1.33;88.19;99598.91;4175091;28;20137;-71
2022/01/28 07:03:41;;;;;;;8.70;1.80;;;;;;;1.36;87.44;99600.25;4174932;28;20471;-71
2022/01/28 07:05:41;;;;;;;6.35;2.25;;;;;;;1.44;86.90;99607.78;4174951;28;20057;-71
2022/01/28 07:07:42;;;;;;;5.82;1.63;;;;;;;1.42;86.01;99601.81;4174457;28;20523;-71
2022/01/28 07:09:42;;;;;;;5.35;1.88;;;;;;;1.40;86.32;99604.81;4174887;28;20057;-71
2022/01/28 07:11:43;;;;;;;15.30;1.88;;;;;;;1.49;85.82;99607.75;4175029;28;20103;-71
2022/01/28 07:13:44;;;;;;;5.97;1.35;;;;;;;1.56;84.74;99613.63;4174476;28;20051;-71
2022/01/28 07:15:45;;;;;;;7.65;2.08;;;;;;;1.54;85.12;99621.31;4174801;28;20053;-71
2022/01/28 07:17:45;;;;;;;5.75;2.28;;;;;;;1.48;85.77;99619.72;4174354;28;20053;-71
2022/01/28 07:19:45;;;;;;;6.88;2.00;;;;;;;1.50;85.15;99624.91;4175020;28;20045;-71
2022/01/28 07:21:46;;;;;;;7.80;2.25;;;;;;;1.57;84.21;99612.56;4175048;28;20083;-71
2022/01/28 07:23:46;;;;;;;6.05;2.83;;;;;;;1.58;84.50;99616.91;4174849;28;20067;-71
2022/01/28 07:25:47;;;;;;;3.38;1.52;;;;;;;1.55;84.63;99611.19;4175260;28;20114;-71
2022/01/28 07:27:47;;;;;;;3.70;1.58;;;;;;;1.49;85.31;99610.47;4173580;28;20092;-70
2022/01/28 07:29:50;;;;;;;8.88;2.53;;;;;;;1.48;85.13;99608.00;4173628;28;20059;-70
2022/01/28 07:31:50;;;;;;;7.95;1.80;;;;;;;1.46;85.56;99621.13;4174698;28;20421;-71
2022/01/28 07:33:50;;;;;;;8.15;2.15;;;;;;;1.52;84.27;99625.44;4174634;28;20041;-71
2022/01/28 07:35:50;;;;;;;5.85;2.40;;;;;;;1.57;83.72;99625.34;4174542;28;20036;-71
2022/01/28 07:37:51;;;;;;;9.23;2.35;;;;;;;1.61;83.72;99624.50;4173923;28;20064;-71
2022/01/28 07:39:51;;;;;;;7.28;3.15;;;;;;;1.57;83.90;99615.28;4174061;28;20543;-71
2022/01/28 07:41:51;;;;;;;9.80;2.03;;;;;;;1.61;82.78;99627.22;4174705;28;20088;-71
2022/01/28 07:43:52;;;;;;;7.55;2.38;;;;;;;1.62;82.95;99630.75;4172955;28;20076;-71
2022/01/28 07:45:53;;;;;;;11.73;3.05;;;;;;;1.66;82.24;99637.28;4174784;28;20131;-71
2022/01/28 07:47:54;;;;;;;13.25;4.00;;;;;;;1.68;81.75;99657.69;4173967;28;20463;-71
2022/01/28 07:49:54;;;;;;;12.15;2.55;;;;;;;1.78;80.28;99664.13;4174619;28;20079;-71
2022/01/28 07:51:55;;;;;;;6.70;1.88;;;;;;;1.74;81.13;99643.97;4174505;28;20151;-71
2022/01/28 07:53:55;;;;;;;8.77;2.30;;;;;;;1.80;80.77;99668.19;4174103;28;20057;-71
2022/01/28 07:55:55;;;;;;;6.13;2.42;;;;;;;1.78;80.75;99659.50;4173789;28;20048;-71
2022/01/28 07:57:56;;;;;;;8.80;4.53;;;;;;;1.84;81.26;99668.44;4173402;28;20508;-71
2022/01/28 07:59:57;;;;;;;14.05;3.85;;;;;;;1.86;80.41;99660.78;4174230;28;20414;-71
2022/01/28 08:01:57;;;;;;;10.43;2.40;;;;;;;1.83;80.64;99677.72;4174237;28;20075;-71
2022/01/28 08:03:57;;;;;;;9.13;3.40;;;;;;;1.80;81.02;99678.28;4173904;28;20084;-71
2022/01/28 08:05:58;;;;;;;7.85;3.75;;;;;;;1.81;80.68;99680.72;4173996;28;20049;-71
2022/01/28 08:08:03;;;;;;;11.30;3.72;;;;;;;1.86;81.19;99677.13;4173588;28;20249;-71
2022/01/28 08:10:04;;;;;;;5.85;1.83;;;;;;;1.84;80.71;99688.34;4173999;28;20052;-71
2022/01/28 08:12:05;;;;;;;12.27;1.65;;;;;;;1.88;79.77;99678.47;4173701;28;20736;-72
2022/01/28 08:14:05;;;;;;;10.25;2.15;;;;;;;1.87;80.22;99685.03;4174061;28;20044;-72
2022/01/28 08:16:06;;;;;;;9.65;2.17;;;;;;;1.84;81.05;99680.16;4174333;28;20041;-71
2022/01/28 08:18:07;;;;;;;4.85;2.10;;;;;;;1.86;81.10;99688.88;4173249;28;20520;-71
2022/01/28 08:20:08;;;;;;;18.48;4.28;;;;;;;1.85;80.20;99695.44;4174148;28;20025;-71
2022/01/28 08:22:08;;;;;;;14.35;4.00;;;;;;;1.87;79.69;99690.50;4174093;28;20104;-71
2022/01/28 08:24:09;;;;;;;9.10;1.90;;;;;;;1.97;79.23;99695.00;4173914;28;20095;-71
2022/01/28 08:26:11;;;;;;;10.80;2.92;;;;;;;1.95;79.57;99705.41;4173750;28;20043;-71
2022/01/28 08:28:11;;;;;;;10.05;2.63;;;;;;;1.99;79.59;99703.75;4173507;28;20147;-71
2022/01/28 08:30:13;;;;;;;9.23;2.08;;;;;;;1.97;79.63;99701.28;4174070;28;20489;-71
2022/01/28 08:32:14;;;;;;;6.07;2.30;;;;;;;2.00;79.74;99710.81;4173808;28;20033;-71
2022/01/28 08:34:14;;;;;;;5.95;1.85;;;;;;;2.04;79.31;99706.38;4173749;28;20274;-71
2022/01/28 08:36:15;;;;;;;7.07;1.88;;;;;;;2.00;79.85;99705.38;4173873;28;20044;-71
2022/01/28 08:38:17;;;;;;;6.57;1.50;;;;;;;2.04;80.16;99695.47;4173572;28;20457;-71
2022/01/28 08:40:18;;;;;;;;;;;;;;;2.05;79.95;99705.28;4173796;28;20028;-71
2022/01/28 08:42:18;;;;;;;6.85;1.77;;;;;;;2.11;79.47;99706.03;4173809;28;19917;-71
2022/01/28 08:44:19;;;;;;;10.02;2.25;;;;;;;2.12;79.84;99703.00;4173600;28;20753;-71
2022/01/28 08:46:19;;;;;;;8.30;1.80;;;;;;;2.15;79.92;99709.78;4174065;28;20025;-71
2022/01/28 08:48:19;;;;;;;7.28;2.22;;;;;;;2.09;80.36;99705.53;4173008;28;20500;-71
2022/01/28 08:50:20;;;;;;;10.40;2.30;;;;;;;2.12;79.98;99708.47;4173914;28;20424;-71
2022/01/28 08:52:20;;;;;;;11.77;2.03;;;;;;;2.17;79.76;99721.25;4173742;28;20569;-71
2022/01/28 08:54:20;;;;;;;10.00;1.65;;;;;;;2.18;79.69;99720.97;4173228;28;20052;-71
2022/01/28 08:56:21;;;;;;;6.10;1.77;;;;;;;2.11;80.06;99733.34;4172329;28;20140;-71
2022/01/28 08:58:22;;;;;;;5.85;1.77;;;;;;;2.16;79.92;99725.91;4172988;28;20053;-71
2022/01/28 09:00:22;;;;;;;11.10;2.53;;;;;;;2.14;80.06;99730.81;4173780;28;20586;-71
2022/01/28 09:02:23;;;;;;;10.65;2.47;;;;;;;2.06;80.81;99722.47;4173674;28;20198;-70
2022/01/28 09:04:23;;;;;;;13.30;2.28;;;;;;;2.16;80.65;99734.09;4173707;28;20427;-71
2022/01/28 09:06:23;;;;;;;6.28;1.80;;;;;;;2.14;80.74;99739.03;4173637;28;20041;-71
2022/01/28 09:08:24;;;;;;;7.47;2.10;;;;;;;2.21;79.60;99733.22;4173133;28;20450;-71
2022/01/28 09:10:29;;;;;;;9.93;2.83;;;;;;;2.14;80.39;99730.81;4173216;28;20376;-71
2022/01/28 09:14:30;;;;;;;12.82;2.63;;;;;;;2.15;80.54;99740.66;4173520;28;20414;-71
2022/01/28 09:16:31;;;;;;;10.02;3.65;;;;;;;2.15;80.81;99748.03;4173264;28;20497;-71
2022/01/28 09:18:31;;;;;;;11.38;3.30;;;;;;;2.15;80.47;99757.06;4173522;28;20091;-71
2022/01/28 09:20:33;;;;;;;10.93;3.60;;;;;;;2.17;80.47;99756.75;4173273;28;20052;-71
2022/01/28 09:22:35;;;;;;;12.15;3.38;;;;;;;2.07;81.29;99763.16;4173887;28;20051;-71
2022/01/28 09:24:35;;;;;;;14.80;3.83;;;;;;;2.02;83.01;99771.41;4173354;28;20049;-71
2022/01/28 09:26:36;;;;;;;12.15;4.80;;;;;;;2.07;82.22;99775.97;4172919;28;20075;-71
2022/01/28 09:28:37;;;;;;;10.90;3.25;;;;;;;2.02;82.71;99765.94;4173545;28;20049;-71
2022/01/28 09:30:37;;;;;;;18.42;3.13;;;;;;;2.07;82.16;99767.78;4173379;28;20283;-71
2022/01/28 09:32:37;;;;;;;8.75;2.25;;;;;;;2.06;82.46;99782.53;4173269;28;20132;-71
2022/01/28 09:34:38;;;;;;;5.20;2.40;;;;;;;2.07;82.54;99778.69;4173241;28;20055;-71
2022/01/28 09:36:39;;;;;;;13.25;3.00;;;;;;;2.11;82.50;99788.75;4172710;28;20432;-71
2022/01/28 09:38:39;;;;;;;11.90;2.33;;;;;;;2.17;81.60;99793.06;4173253;28;20170;-71
2022/01/28 09:40:40;;;;;;;7.43;2.38;;;;;;;2.16;80.22;99790.63;4173361;28;20052;-71
2022/01/28 09:42:43;;;;;;;11.07;2.72;;;;;;;2.28;80.85;99798.41;4173327;28;20529;-70
2022/01/28 09:44:43;;;;;;;6.28;2.53;;;;;;;2.33;78.54;99788.25;4173301;28;20045;-70
2022/01/28 09:46:44;;;;;;;9.43;2.33;;;;;;;2.38;77.49;99796.34;4172365;28;20082;-71
2022/01/28 09:48:46;;;;;;;7.60;2.53;;;;;;;2.35;78.37;99793.41;4173363;28;20041;-71
2022/01/28 09:50:47;;;;;;;10.68;2.38;;;;;;;2.38;78.28;99820.94;4173506;28;20044;-71
2022/01/28 09:52:49;;;;;;;7.88;2.85;;;;;;;2.40;74.18;99820.63;4173540;28;20102;-71
2022/01/28 09:54:49;;;;;;;7.75;2.08;;;;;;;2.44;75.78;99819.78;4176270;28;20061;-71
2022/01/28 09:56:50;;;;;;;11.50;2.42;;;;;;;2.40;76.83;99823.38;4175656;28;20045;-71
2022/01/28 09:58:50;;;;;;;7.50;2.00;;;;;;;2.44;74.56;99810.78;4176259;28;20099;-71
2022/01/28 10:00:51;;;;;;;13.90;2.45;;;;;;;2.44;73.34;99824.44;4176019;28;20041;-71
2022/01/28 10:03:04;;;;;;;14.75;6.15;;;;;;;2.48;72.36;99841.84;4175970;28;20093;-71
2022/01/28 10:05:16;;;;;;;12.00;2.63;;;;;;;2.42;73.37;99832.13;4176223;28;20144;-71
2022/01/28 10:07:17;;;;;;;;;;;;;;;2.44;73.73;99862.69;4175326;28;20064;-71
2022/01/28 10:09:19;;;;;;;11.43;2.72;;;;;;;2.45;74.23;99847.91;4175888;28;19924;-71
2022/01/28 10:11:19;;;;;;;8.10;2.30;;;;;;;2.43;73.37;99834.53;4168244;28;20045;-71
2022/01/28 10:13:41;;;;;;;9.50;2.55;;;;;;;2.49;73.18;99851.69;4175388;28;20055;-71
2022/01/28 10:15:54;;;;;;;7.22;3.00;;;;;;;2.46;73.02;99860.47;4174767;28;20048;-71
2022/01/28 10:17:58;;;;;;;7.53;2.40;;;;;;;2.52;71.45;99865.59;4174916;28;20049;-71
2022/01/28 10:20:06;;;;;;;11.82;2.67;;;;;;;2.50;72.95;99862.34;4175382;28;20051;-71
2022/01/28 10:22:18;;;;;;;6.38;1.80;;;;;;;2.49;71.54;99859.91;4175084;28;20076;-71
2022/01/28 10:24:24;;;;;;;14.80;4.43;;;;;;;2.51;70.83;99874.88;4175739;28;20362;-71
2022/01/28 10:26:29;;;;;;;9.77;2.88;;;;;;;2.49;71.26;99892.69;4173283;28;20146;-71
2022/01/28 10:28:29;;;;;;;9.48;2.22;;;;;;;2.48;72.34;99871.91;4175210;28;20128;-71
2022/01/28 10:30:34;;;;;;;10.52;2.40;;;;;;;2.45;74.11;99876.03;4175504;28;20079;-72
2022/01/28 10:32:34;;;;;;;6.68;2.17;;;;;;;2.39;70.72;99888.13;4175619;28;20049;-71
2022/01/28 10:34:40;;;;;;;7.20;2.40;;;;;;;2.49;69.42;99887.22;4174510;28;20417;-71
2022/01/28 10:36:40;;;;;;;12.13;1.88;;;;;;;2.43;70.68;99880.19;4171538;28;20045;-71
2022/01/28 10:38:43;;;;;;;13.27;2.92;;;;;;;2.49;69.98;99887.22;4173577;28;20052;-71
2022/01/28 10:41:10;;;;;;;11.10;2.10;;;;;;;2.48;70.61;99874.63;4175453;28;20045;-71
2022/01/28 10:43:11;;;;;;;5.78;2.00;;;;;;;2.47;69.08;99873.00;4175661;28;20496;-71
2022/01/28 10:45:16;;;;;;;5.10;2.55;;;;;;;2.54;67.81;99877.03;4175324;28;20072;-71
2022/01/28 10:47:32;;;;;;;10.95;2.10;;;;;;;2.62;67.51;99888.41;4171864;28;20405;-71
2022/01/28 10:49:34;;;;;;;10.68;2.30;;;;;;;2.62;67.53;99897.44;4160972;28;20046;-71
2022/01/28 10:51:49;;;;;;;12.43;2.45;;;;;;;2.63;68.43;99896.31;4158472;28;20508;-71
2022/01/28 10:54:09;;;;;;;7.85;2.97;;;;;;;2.64;68.27;99878.81;4157987;28;20556;-71
2022/01/28 10:56:12;;;;;;;12.23;4.20;;;;;;;2.60;68.78;99905.13;4158509;28;20033;-71
2022/01/28 10:58:15;;;;;;;16.85;6.13;;;;;;;2.63;68.83;99896.31;4158355;28;20456;-71
2022/01/28 11:00:16;;;;;;;17.17;2.92;;;;;;;2.68;67.62;99879.88;4158170;28;20061;-71